TimeCST,TemperatureF,Dew PointF,Humidity,Sea Level PressureIn,VisibilityMPH,Wind Direction,Wind SpeedMPH,Gust SpeedMPH,PrecipitationIn,Events,Conditions,WindDirDegrees,DateUTC
12:56 AM,37.0,34.0,89,30.21,10.0,NNW,3.5,-,N/A,,Clear,340,2012-11-09 06:56:00
1:56 AM,36.0,33.1,89,30.20,10.0,Calm,Calm,-,N/A,,Clear,0,2012-11-09 07:56:00
2:56 AM,35.1,32.0,89,30.21,10.0,Calm,Calm,-,N/A,,Clear,0,2012-11-09 08:56:00
3:56 AM,35.1,32.0,89,30.22,10.0,Calm,Calm,-,N/A,,Clear,0,2012-11-09 09:56:00
4:56 AM,34.0,30.9,89,30.24,10.0,Calm,Calm,-,N/A,,Clear,0,2012-11-09 10:56:00
5:56 AM,34.0,30.9,89,30.26,10.0,Calm,Calm,-,N/A,,Clear,0,2012-11-09 11:56:00
6:56 AM,36.0,33.1,89,30.28,7.0,Calm,Calm,-,N/A,,Clear,0,2012-11-09 12:56:00
7:56 AM,48.0,43.0,83,30.30,7.0,Calm,Calm,-,0.01,,Clear,0,2012-11-09 13:56:00
8:56 AM,57.0,43.0,59,30.31,10.0,Calm,Calm,-,N/A,,Clear,0,2012-11-09 14:56:00
9:56 AM,61.0,41.0,48,30.31,10.0,SE,4.6,-,N/A,,Clear,140,2012-11-09 15:56:00
10:56 AM,64.9,39.9,40,30.29,10.0,Calm,Calm,-,N/A,,Clear,0,2012-11-09 16:56:00
11:56 AM,66.9,37.0,33,30.26,10.0,Calm,Calm,-,N/A,,Clear,0,2012-11-09 17:56:00
12:56 PM,69.1,37.0,31,30.22,10.0,Calm,Calm,-,N/A,,Clear,0,2012-11-09 18:56:00
1:56 PM,70.0,37.9,31,30.21,10.0,Calm,Calm,-,N/A,,Clear,0,2012-11-09 19:56:00
2:56 PM,68.0,36.0,31,30.20,10.0,Calm,Calm,-,N/A,,Clear,0,2012-11-09 20:56:00
3:56 PM,68.0,39.0,35,30.21,10.0,Calm,Calm,-,N/A,,Clear,0,2012-11-09 21:56:00
4:56 PM,60.1,45.0,57,30.21,10.0,Calm,Calm,-,N/A,,Clear,0,2012-11-09 22:56:00
5:56 PM,54.0,46.0,75,30.22,10.0,Calm,Calm,-,N/A,,Clear,0,2012-11-09 23:56:00
6:56 PM,51.1,45.0,80,30.24,10.0,Calm,Calm,-,N/A,,Clear,0,2012-11-10 00:56:00
7:56 PM,46.9,44.1,90,30.24,10.0,Calm,Calm,-,N/A,,Clear,0,2012-11-10 01:56:00
8:56 PM,46.9,43.0,86,30.25,10.0,Calm,Calm,-,N/A,,Clear,0,2012-11-10 02:56:00
9:56 PM,45.0,42.1,90,30.25,7.0,Calm,Calm,-,N/A,,Clear,0,2012-11-10 03:56:00
10:56 PM,43.0,39.9,89,30.25,8.0,Calm,Calm,-,N/A,,Clear,0,2012-11-10 04:56:00
11:56 PM,43.0,39.9,89,30.25,5.0,Calm,Calm,-,N/A,,Clear,0,2012-11-10 05:56:00